Terminal Aerodrome Forecast
Issued by NWS

Current Version | Previous Version | Text Only | Print | Product List | Glossary On
Versions: 1 2 3 4 5 6 7 8 9 10 11 12 13 14 15 16 17 18
118
FTUS43 KMQT 300526
TAFIWD
TAF
KIWD 300526Z 3006/3106 19005KT P6SM OVC120
     FM300800 26004KT P6SM BKN030
     FM300900 27004KT P6SM SCT030
     FM301200 31007KT P6SM SCT030
     FM301300 32012KT P6SM SCT070
      AMD LTD TO CLD VIS AND WIND=

USA.gov is the U.S. government's official web portal to all federal, state and local government web resources and services.